sensor_id;sensor_type;location;lat;lon;timestamp;P1;durP1;ratioP1;P2;durP2;ratioP2
55025;SDS011;40925;45.666;18.994;2023-05-07T00:01:43;11.73;;;7.78;;
55025;SDS011;40925;45.666;18.994;2023-05-07T00:04:08;14.32;;;8.27;;
55025;SDS011;40925;45.666;18.994;2023-05-07T00:06:34;11.88;;;8.02;;
55025;SDS011;40925;45.666;18.994;2023-05-07T00:09:00;14.63;;;8.20;;
55025;SDS011;40925;45.666;18.994;2023-05-07T00:14:29;15.07;;;8.27;;
55025;SDS011;40925;45.666;18.994;2023-05-07T00:16:55;13.38;;;8.30;;
55025;SDS011;40925;45.666;18.994;2023-05-07T00:19:20;13.35;;;8.68;;
55025;SDS011;40925;45.666;18.994;2023-05-07T00:21:46;13.93;;;8.63;;
55025;SDS011;40925;45.666;18.994;2023-05-07T00:24:12;12.73;;;8.98;;
55025;SDS011;40925;45.666;18.994;2023-05-07T00:26:37;12.27;;;8.80;;
55025;SDS011;40925;45.666;18.994;2023-05-07T00:29:03;13.30;;;9.45;;
55025;SDS011;40925;45.666;18.994;2023-05-07T00:31:29;11.57;;;8.65;;
55025;SDS011;40925;45.666;18.994;2023-05-07T00:33:55;15.18;;;9.10;;
55025;SDS011;40925;45.666;18.994;2023-05-07T00:36:21;12.27;;;8.32;;
55025;SDS011;40925;45.666;18.994;2023-05-07T00:38:47;13.10;;;9.40;;
55025;SDS011;40925;45.666;18.994;2023-05-07T00:41:13;14.05;;;9.27;;
55025;SDS011;40925;45.666;18.994;2023-05-07T00:43:39;12.70;;;9.32;;
55025;SDS011;40925;45.666;18.994;2023-05-07T00:46:05;14.35;;;10.13;;
55025;SDS011;40925;45.666;18.994;2023-05-07T00:48:31;15.18;;;9.82;;
55025;SDS011;40925;45.666;18.994;2023-05-07T00:50:57;13.77;;;10.48;;
55025;SDS011;40925;45.666;18.994;2023-05-07T00:53:23;16.08;;;10.13;;
55025;SDS011;40925;45.666;18.994;2023-05-07T00:55:49;14.27;;;9.63;;
55025;SDS011;40925;45.666;18.994;2023-05-07T00:58:15;14.32;;;10.20;;
55025;SDS011;40925;45.666;18.994;2023-05-07T01:00:41;14.38;;;10.10;;
55025;SDS011;40925;45.666;18.994;2023-05-07T01:03:07;15.90;;;10.40;;
55025;SDS011;40925;45.666;18.994;2023-05-07T01:05:33;14.43;;;9.68;;
55025;SDS011;40925;45.666;18.994;2023-05-07T01:07:59;13.20;;;10.23;;
55025;SDS011;40925;45.666;18.994;2023-05-07T01:10:25;15.77;;;10.55;;
55025;SDS011;40925;45.666;18.994;2023-05-07T01:12:51;14.32;;;10.32;;
55025;SDS011;40925;45.666;18.994;2023-05-07T01:15:18;15.13;;;10.18;;
55025;SDS011;40925;45.666;18.994;2023-05-07T01:17:44;13.10;;;9.70;;
55025;SDS011;40925;45.666;18.994;2023-05-07T01:20:10;14.05;;;9.75;;
55025;SDS011;40925;45.666;18.994;2023-05-07T01:22:37;13.35;;;9.85;;
55025;SDS011;40925;45.666;18.994;2023-05-07T01:25:04;14.80;;;10.18;;
55025;SDS011;40925;45.666;18.994;2023-05-07T01:27:30;15.20;;;9.65;;
55025;SDS011;40925;45.666;18.994;2023-05-07T01:29:58;13.93;;;9.82;;
55025;SDS011;40925;45.666;18.994;2023-05-07T01:32:27;15.57;;;10.15;;
55025;SDS011;40925;45.666;18.994;2023-05-07T01:34:58;13.38;;;10.00;;
55025;SDS011;40925;45.666;18.994;2023-05-07T01:37:26;16.10;;;10.15;;
55025;SDS011;40925;45.666;18.994;2023-05-07T01:39:52;16.80;;;10.05;;
55025;SDS011;40925;45.666;18.994;2023-05-07T01:42:19;12.98;;;9.75;;
55025;SDS011;40925;45.666;18.994;2023-05-07T01:44:45;14.45;;;10.35;;
55025;SDS011;40925;45.666;18.994;2023-05-07T01:47:11;13.77;;;9.68;;
55025;SDS011;40925;45.666;18.994;2023-05-07T01:49:38;14.30;;;9.82;;
55025;SDS011;40925;45.666;18.994;2023-05-07T01:52:05;12.65;;;9.45;;
55025;SDS011;40925;45.666;18.994;2023-05-07T01:54:30;15.93;;;9.93;;
55025;SDS011;40925;45.666;18.994;2023-05-07T01:56:56;15.57;;;10.50;;
55025;SDS011;40925;45.666;18.994;2023-05-07T01:59:22;14.48;;;10.52;;
55025;SDS011;40925;45.666;18.994;2023-05-07T02:01:48;14.90;;;10.10;;
55025;SDS011;40925;45.666;18.994;2023-05-07T02:04:13;14.38;;;10.48;;
55025;SDS011;40925;45.666;18.994;2023-05-07T02:06:39;17.10;;;10.63;;
55025;SDS011;40925;45.666;18.994;2023-05-07T02:09:05;16.10;;;10.52;;
55025;SDS011;40925;45.666;18.994;2023-05-07T02:11:34;14.80;;;9.80;;
55025;SDS011;40925;45.666;18.994;2023-05-07T02:14:00;14.20;;;10.15;;
55025;SDS011;40925;45.666;18.994;2023-05-07T02:16:25;13.82;;;9.77;;
55025;SDS011;40925;45.666;18.994;2023-05-07T02:18:51;15.93;;;10.23;;
55025;SDS011;40925;45.666;18.994;2023-05-07T02:21:17;14.18;;;9.68;;
55025;SDS011;40925;45.666;18.994;2023-05-07T02:23:42;12.88;;;9.57;;
55025;SDS011;40925;45.666;18.994;2023-05-07T02:26:08;13.32;;;9.73;;
55025;SDS011;40925;45.666;18.994;2023-05-07T02:28:35;14.82;;;10.13;;
55025;SDS011;40925;45.666;18.994;2023-05-07T02:31:03;14.32;;;9.80;;
55025;SDS011;40925;45.666;18.994;2023-05-07T02:33:29;13.45;;;9.73;;
55025;SDS011;40925;45.666;18.994;2023-05-07T02:35:55;16.45;;;9.93;;
55025;SDS011;40925;45.666;18.994;2023-05-07T02:38:21;14.65;;;10.02;;
55025;SDS011;40925;45.666;18.994;2023-05-07T02:40:47;11.52;;;9.27;;
55025;SDS011;40925;45.666;18.994;2023-05-07T02:43:13;13.63;;;9.88;;
55025;SDS011;40925;45.666;18.994;2023-05-07T02:45:39;13.93;;;9.63;;
55025;SDS011;40925;45.666;18.994;2023-05-07T02:48:05;14.88;;;9.70;;
55025;SDS011;40925;45.666;18.994;2023-05-07T02:50:32;13.73;;;9.00;;
55025;SDS011;40925;45.666;18.994;2023-05-07T02:52:58;15.32;;;10.02;;
55025;SDS011;40925;45.666;18.994;2023-05-07T02:55:24;13.18;;;9.63;;
55025;SDS011;40925;45.666;18.994;2023-05-07T02:57:50;14.70;;;9.52;;
55025;SDS011;40925;45.666;18.994;2023-05-07T03:00:17;16.02;;;10.02;;
55025;SDS011;40925;45.666;18.994;2023-05-07T03:02:44;11.77;;;9.32;;
55025;SDS011;40925;45.666;18.994;2023-05-07T03:05:10;13.52;;;9.25;;
55025;SDS011;40925;45.666;18.994;2023-05-07T03:07:37;16.25;;;10.35;;
55025;SDS011;40925;45.666;18.994;2023-05-07T03:10:03;14.82;;;10.35;;
55025;SDS011;40925;45.666;18.994;2023-05-07T03:12:30;23.55;;;15.32;;
55025;SDS011;40925;45.666;18.994;2023-05-07T03:14:56;19.83;;;14.10;;
55025;SDS011;40925;45.666;18.994;2023-05-07T03:17:22;19.90;;;13.13;;
55025;SDS011;40925;45.666;18.994;2023-05-07T03:19:48;16.98;;;11.77;;
55025;SDS011;40925;45.666;18.994;2023-05-07T03:22:14;17.30;;;11.02;;
55025;SDS011;40925;45.666;18.994;2023-05-07T03:24:40;16.05;;;10.10;;
55025;SDS011;40925;45.666;18.994;2023-05-07T03:27:07;15.07;;;10.57;;
55025;SDS011;40925;45.666;18.994;2023-05-07T03:29:33;15.18;;;10.35;;
55025;SDS011;40925;45.666;18.994;2023-05-07T03:31:59;17.10;;;11.05;;
55025;SDS011;40925;45.666;18.994;2023-05-07T03:34:25;18.50;;;11.10;;
55025;SDS011;40925;45.666;18.994;2023-05-07T03:36:51;17.27;;;10.57;;
55025;SDS011;40925;45.666;18.994;2023-05-07T03:39:17;15.13;;;10.30;;
55025;SDS011;40925;45.666;18.994;2023-05-07T03:41:44;15.93;;;10.70;;
55025;SDS011;40925;45.666;18.994;2023-05-07T03:44:10;16.55;;;10.88;;
55025;SDS011;40925;45.666;18.994;2023-05-07T03:46:36;14.52;;;11.23;;
55025;SDS011;40925;45.666;18.994;2023-05-07T03:49:02;16.65;;;11.27;;
55025;SDS011;40925;45.666;18.994;2023-05-07T03:51:28;16.15;;;10.77;;
55025;SDS011;40925;45.666;18.994;2023-05-07T03:53:54;18.15;;;11.20;;
55025;SDS011;40925;45.666;18.994;2023-05-07T03:56:22;19.33;;;12.07;;
55025;SDS011;40925;45.666;18.994;2023-05-07T03:58:51;18.35;;;11.73;;
55025;SDS011;40925;45.666;18.994;2023-05-07T04:01:17;15.77;;;11.70;;
55025;SDS011;40925;45.666;18.994;2023-05-07T04:03:43;17.67;;;11.35;;
55025;SDS011;40925;45.666;18.994;2023-05-07T04:06:09;15.60;;;10.80;;
55025;SDS011;40925;45.666;18.994;2023-05-07T04:08:35;15.38;;;10.73;;
55025;SDS011;40925;45.666;18.994;2023-05-07T04:11:01;13.68;;;10.40;;
55025;SDS011;40925;45.666;18.994;2023-05-07T04:13:28;14.38;;;10.80;;
55025;SDS011;40925;45.666;18.994;2023-05-07T04:15:55;17.42;;;10.50;;
55025;SDS011;40925;45.666;18.994;2023-05-07T04:18:21;17.02;;;10.38;;
55025;SDS011;40925;45.666;18.994;2023-05-07T04:20:48;16.17;;;11.43;;
55025;SDS011;40925;45.666;18.994;2023-05-07T04:23:17;16.27;;;11.75;;
55025;SDS011;40925;45.666;18.994;2023-05-07T04:25:43;15.05;;;11.63;;
55025;SDS011;40925;45.666;18.994;2023-05-07T04:28:10;18.42;;;11.15;;
55025;SDS011;40925;45.666;18.994;2023-05-07T04:30:36;17.45;;;11.07;;
55025;SDS011;40925;45.666;18.994;2023-05-07T04:33:02;17.65;;;11.13;;
55025;SDS011;40925;45.666;18.994;2023-05-07T04:35:28;18.30;;;11.88;;
55025;SDS011;40925;45.666;18.994;2023-05-07T04:37:54;16.63;;;11.25;;
55025;SDS011;40925;45.666;18.994;2023-05-07T04:40:20;16.50;;;11.35;;
55025;SDS011;40925;45.666;18.994;2023-05-07T04:42:46;19.23;;;12.07;;
55025;SDS011;40925;45.666;18.994;2023-05-07T04:45:12;15.07;;;11.68;;
55025;SDS011;40925;45.666;18.994;2023-05-07T04:47:38;15.23;;;11.82;;
55025;SDS011;40925;45.666;18.994;2023-05-07T04:50:05;15.85;;;11.60;;
55025;SDS011;40925;45.666;18.994;2023-05-07T04:52:32;16.88;;;11.70;;
55025;SDS011;40925;45.666;18.994;2023-05-07T04:54:59;16.10;;;10.93;;
55025;SDS011;40925;45.666;18.994;2023-05-07T04:57:26;19.70;;;11.75;;
55025;SDS011;40925;45.666;18.994;2023-05-07T04:59:52;17.77;;;11.57;;
55025;SDS011;40925;45.666;18.994;2023-05-07T05:02:18;20.80;;;11.93;;
55025;SDS011;40925;45.666;18.994;2023-05-07T05:04:44;20.10;;;11.25;;
55025;SDS011;40925;45.666;18.994;2023-05-07T05:07:10;16.20;;;11.50;;
55025;SDS011;40925;45.666;18.994;2023-05-07T05:09:36;18.88;;;11.63;;
55025;SDS011;40925;45.666;18.994;2023-05-07T05:12:02;16.83;;;11.70;;
55025;SDS011;40925;45.666;18.994;2023-05-07T05:14:28;17.20;;;11.85;;
55025;SDS011;40925;45.666;18.994;2023-05-07T05:16:54;19.02;;;11.43;;
55025;SDS011;40925;45.666;18.994;2023-05-07T05:19:20;18.50;;;11.75;;
55025;SDS011;40925;45.666;18.994;2023-05-07T05:21:46;18.70;;;12.32;;
55025;SDS011;40925;45.666;18.994;2023-05-07T05:24:11;17.20;;;11.85;;
55025;SDS011;40925;45.666;18.994;2023-05-07T05:26:37;15.65;;;11.57;;
55025;SDS011;40925;45.666;18.994;2023-05-07T05:29:03;16.80;;;11.68;;
55025;SDS011;40925;45.666;18.994;2023-05-07T05:31:28;17.63;;;12.05;;
55025;SDS011;40925;45.666;18.994;2023-05-07T05:33:54;18.98;;;12.40;;
55025;SDS011;40925;45.666;18.994;2023-05-07T05:36:20;19.50;;;12.05;;
55025;SDS011;40925;45.666;18.994;2023-05-07T05:38:46;16.45;;;12.02;;
55025;SDS011;40925;45.666;18.994;2023-05-07T05:41:11;18.58;;;11.73;;
55025;SDS011;40925;45.666;18.994;2023-05-07T05:43:37;17.67;;;11.65;;
55025;SDS011;40925;45.666;18.994;2023-05-07T05:46:03;16.67;;;10.38;;
55025;SDS011;40925;45.666;18.994;2023-05-07T05:48:29;17.45;;;10.18;;
55025;SDS011;40925;45.666;18.994;2023-05-07T05:50:55;17.80;;;10.48;;
55025;SDS011;40925;45.666;18.994;2023-05-07T05:53:21;8.65;;;6.35;;
55025;SDS011;40925;45.666;18.994;2023-05-07T05:55:47;8.88;;;6.07;;
55025;SDS011;40925;45.666;18.994;2023-05-07T05:58:12;10.95;;;6.72;;
55025;SDS011;40925;45.666;18.994;2023-05-07T06:00:40;11.35;;;6.57;;
55025;SDS011;40925;45.666;18.994;2023-05-07T06:03:05;11.13;;;7.90;;
55025;SDS011;40925;45.666;18.994;2023-05-07T06:05:31;17.00;;;8.93;;
55025;SDS011;40925;45.666;18.994;2023-05-07T06:07:57;12.85;;;8.60;;
55025;SDS011;40925;45.666;18.994;2023-05-07T06:10:23;10.07;;;7.10;;
55025;SDS011;40925;45.666;18.994;2023-05-07T06:12:49;10.57;;;6.97;;
55025;SDS011;40925;45.666;18.994;2023-05-07T06:15:15;10.90;;;7.20;;
55025;SDS011;40925;45.666;18.994;2023-05-07T06:17:40;15.30;;;10.75;;
55025;SDS011;40925;45.666;18.994;2023-05-07T06:20:06;16.60;;;11.98;;
55025;SDS011;40925;45.666;18.994;2023-05-07T06:22:32;16.60;;;11.85;;
55025;SDS011;40925;45.666;18.994;2023-05-07T06:24:58;15.48;;;12.13;;
55025;SDS011;40925;45.666;18.994;2023-05-07T06:32:36;19.00;;;11.23;;
55025;SDS011;40925;45.666;18.994;2023-05-07T06:35:02;14.90;;;10.90;;
55025;SDS011;40925;45.666;18.994;2023-05-07T06:37:28;17.42;;;9.95;;
55025;SDS011;40925;45.666;18.994;2023-05-07T06:39:54;14.57;;;9.30;;
55025;SDS011;40925;45.666;18.994;2023-05-07T06:42:20;13.07;;;9.82;;
55025;SDS011;40925;45.666;18.994;2023-05-07T06:44:46;13.98;;;9.50;;
55025;SDS011;40925;45.666;18.994;2023-05-07T06:47:12;14.30;;;9.32;;
55025;SDS011;40925;45.666;18.994;2023-05-07T06:49:38;11.45;;;6.72;;
55025;SDS011;40925;45.666;18.994;2023-05-07T06:52:04;9.43;;;5.60;;
55025;SDS011;40925;45.666;18.994;2023-05-07T06:54:29;8.70;;;6.00;;
55025;SDS011;40925;45.666;18.994;2023-05-07T06:56:55;7.28;;;5.57;;
55025;SDS011;40925;45.666;18.994;2023-05-07T06:59:21;8.65;;;5.68;;
55025;SDS011;40925;45.666;18.994;2023-05-07T07:01:47;8.18;;;5.40;;
55025;SDS011;40925;45.666;18.994;2023-05-07T07:04:13;7.68;;;5.40;;
55025;SDS011;40925;45.666;18.994;2023-05-07T07:06:39;7.32;;;5.13;;
55025;SDS011;40925;45.666;18.994;2023-05-07T07:09:05;7.35;;;5.10;;
55025;SDS011;40925;45.666;18.994;2023-05-07T07:11:31;7.28;;;5.15;;
55025;SDS011;40925;45.666;18.994;2023-05-07T07:13:58;9.52;;;5.25;;
55025;SDS011;40925;45.666;18.994;2023-05-07T07:16:24;7.18;;;5.40;;
55025;SDS011;40925;45.666;18.994;2023-05-07T07:18:50;7.97;;;5.40;;
55025;SDS011;40925;45.666;18.994;2023-05-07T07:21:16;7.13;;;5.13;;
55025;SDS011;40925;45.666;18.994;2023-05-07T07:23:42;6.35;;;4.85;;
55025;SDS011;40925;45.666;18.994;2023-05-07T07:26:08;7.18;;;4.78;;
55025;SDS011;40925;45.666;18.994;2023-05-07T07:28:34;7.30;;;4.78;;
55025;SDS011;40925;45.666;18.994;2023-05-07T07:31:06;7.70;;;4.97;;
55025;SDS011;40925;45.666;18.994;2023-05-07T07:33:32;8.57;;;5.03;;
55025;SDS011;40925;45.666;18.994;2023-05-07T07:35:58;6.22;;;4.53;;
55025;SDS011;40925;45.666;18.994;2023-05-07T07:38:24;8.25;;;4.80;;
55025;SDS011;40925;45.666;18.994;2023-05-07T07:40:50;8.35;;;4.68;;
55025;SDS011;40925;45.666;18.994;2023-05-07T07:43:15;7.10;;;4.65;;
55025;SDS011;40925;45.666;18.994;2023-05-07T07:45:41;8.88;;;4.60;;
55025;SDS011;40925;45.666;18.994;2023-05-07T07:48:08;5.53;;;4.28;;
55025;SDS011;40925;45.666;18.994;2023-05-07T07:50:34;5.47;;;4.20;;
55025;SDS011;40925;45.666;18.994;2023-05-07T07:52:59;6.28;;;4.45;;
55025;SDS011;40925;45.666;18.994;2023-05-07T07:55:26;5.72;;;4.07;;
55025;SDS011;40925;45.666;18.994;2023-05-07T07:58:10;5.43;;;3.92;;
55025;SDS011;40925;45.666;18.994;2023-05-07T08:00:37;5.25;;;4.15;;
55025;SDS011;40925;45.666;18.994;2023-05-07T08:03:03;5.93;;;3.85;;
55025;SDS011;40925;45.666;18.994;2023-05-07T08:05:30;6.03;;;3.85;;
55025;SDS011;40925;45.666;18.994;2023-05-07T08:07:56;4.93;;;3.92;;
55025;SDS011;40925;45.666;18.994;2023-05-07T08:10:23;4.95;;;3.70;;
55025;SDS011;40925;45.666;18.994;2023-05-07T08:12:49;5.75;;;3.80;;
55025;SDS011;40925;45.666;18.994;2023-05-07T08:15:16;4.85;;;3.78;;
55025;SDS011;40925;45.666;18.994;2023-05-07T08:17:42;8.25;;;4.65;;
55025;SDS011;40925;45.666;18.994;2023-05-07T08:20:08;6.55;;;4.43;;
55025;SDS011;40925;45.666;18.994;2023-05-07T08:22:35;6.85;;;4.10;;
55025;SDS011;40925;45.666;18.994;2023-05-07T08:25:01;8.10;;;4.18;;
55025;SDS011;40925;45.666;18.994;2023-05-07T08:27:27;7.22;;;4.45;;
55025;SDS011;40925;45.666;18.994;2023-05-07T08:29:53;6.20;;;4.07;;
55025;SDS011;40925;45.666;18.994;2023-05-07T08:32:19;7.68;;;4.30;;
55025;SDS011;40925;45.666;18.994;2023-05-07T08:34:46;5.70;;;4.05;;
55025;SDS011;40925;45.666;18.994;2023-05-07T08:37:12;5.70;;;4.18;;
55025;SDS011;40925;45.666;18.994;2023-05-07T08:39:38;7.93;;;4.00;;
55025;SDS011;40925;45.666;18.994;2023-05-07T08:42:04;6.03;;;4.40;;
55025;SDS011;40925;45.666;18.994;2023-05-07T08:44:32;6.97;;;4.20;;
55025;SDS011;40925;45.666;18.994;2023-05-07T08:46:59;5.93;;;4.03;;
55025;SDS011;40925;45.666;18.994;2023-05-07T08:49:27;5.43;;;3.85;;
55025;SDS011;40925;45.666;18.994;2023-05-07T08:51:53;6.45;;;3.80;;
55025;SDS011;40925;45.666;18.994;2023-05-07T08:54:21;6.18;;;3.40;;
55025;SDS011;40925;45.666;18.994;2023-05-07T08:56:47;5.55;;;3.50;;
55025;SDS011;40925;45.666;18.994;2023-05-07T08:59:13;6.22;;;3.35;;
55025;SDS011;40925;45.666;18.994;2023-05-07T09:01:39;4.78;;;2.90;;
55025;SDS011;40925;45.666;18.994;2023-05-07T09:04:04;3.92;;;2.83;;
55025;SDS011;40925;45.666;18.994;2023-05-07T09:06:32;7.57;;;3.17;;
55025;SDS011;40925;45.666;18.994;2023-05-07T09:09:03;6.68;;;3.42;;
55025;SDS011;40925;45.666;18.994;2023-05-07T09:11:30;7.15;;;3.22;;
55025;SDS011;40925;45.666;18.994;2023-05-07T09:13:56;8.07;;;3.40;;
55025;SDS011;40925;45.666;18.994;2023-05-07T09:16:26;4.25;;;2.70;;
55025;SDS011;40925;45.666;18.994;2023-05-07T09:18:54;5.82;;;2.60;;
55025;SDS011;40925;45.666;18.994;2023-05-07T09:21:20;5.28;;;3.22;;
55025;SDS011;40925;45.666;18.994;2023-05-07T09:23:51;4.15;;;2.80;;
55025;SDS011;40925;45.666;18.994;2023-05-07T09:26:33;2.95;;;2.60;;
55025;SDS011;40925;45.666;18.994;2023-05-07T09:28:59;6.00;;;3.33;;
55025;SDS011;40925;45.666;18.994;2023-05-07T09:31:26;6.20;;;3.22;;
55025;SDS011;40925;45.666;18.994;2023-05-07T09:33:52;6.00;;;3.28;;
55025;SDS011;40925;45.666;18.994;2023-05-07T09:36:18;4.40;;;2.90;;
55025;SDS011;40925;45.666;18.994;2023-05-07T09:38:44;5.40;;;3.60;;
55025;SDS011;40925;45.666;18.994;2023-05-07T09:41:11;5.40;;;3.60;;
55025;SDS011;40925;45.666;18.994;2023-05-07T09:43:38;4.55;;;3.50;;
55025;SDS011;40925;45.666;18.994;2023-05-07T09:46:09;4.78;;;2.95;;
55025;SDS011;40925;45.666;18.994;2023-05-07T09:48:38;5.03;;;3.20;;
55025;SDS011;40925;45.666;18.994;2023-05-07T09:51:06;5.82;;;3.25;;
55025;SDS011;40925;45.666;18.994;2023-05-07T09:53:52;6.88;;;3.22;;
55025;SDS011;40925;45.666;18.994;2023-05-07T09:56:19;4.75;;;3.00;;
55025;SDS011;40925;45.666;18.994;2023-05-07T09:58:45;3.30;;;3.00;;
55025;SDS011;40925;45.666;18.994;2023-05-07T10:01:11;6.28;;;3.13;;
55025;SDS011;40925;45.666;18.994;2023-05-07T10:03:39;7.53;;;3.25;;
55025;SDS011;40925;45.666;18.994;2023-05-07T10:06:08;4.63;;;3.30;;
55025;SDS011;40925;45.666;18.994;2023-05-07T10:08:35;5.05;;;3.20;;
55025;SDS011;40925;45.666;18.994;2023-05-07T10:11:03;4.57;;;3.00;;
55025;SDS011;40925;45.666;18.994;2023-05-07T10:13:30;8.77;;;3.20;;
55025;SDS011;40925;45.666;18.994;2023-05-07T10:15:58;6.13;;;3.13;;
55025;SDS011;40925;45.666;18.994;2023-05-07T10:18:24;13.70;;;10.40;;
55025;SDS011;40925;45.666;18.994;2023-05-07T10:20:54;9.35;;;6.45;;
55025;SDS011;40925;45.666;18.994;2023-05-07T10:23:32;6.07;;;3.03;;
55025;SDS011;40925;45.666;18.994;2023-05-07T10:25:59;5.50;;;3.13;;
55025;SDS011;40925;45.666;18.994;2023-05-07T10:28:30;6.88;;;3.58;;
55025;SDS011;40925;45.666;18.994;2023-05-07T10:33:42;5.72;;;4.28;;
55025;SDS011;40925;45.666;18.994;2023-05-07T10:36:12;6.28;;;3.00;;
55025;SDS011;40925;45.666;18.994;2023-05-07T10:38:38;5.55;;;3.40;;
55025;SDS011;40925;45.666;18.994;2023-05-07T10:41:05;6.00;;;3.50;;
55025;SDS011;40925;45.666;18.994;2023-05-07T10:43:41;5.18;;;3.13;;
55025;SDS011;40925;45.666;18.994;2023-05-07T10:51:27;4.07;;;3.20;;
55025;SDS011;40925;45.666;18.994;2023-05-07T10:56:37;6.28;;;3.15;;
55025;SDS011;40925;45.666;18.994;2023-05-07T11:01:53;9.65;;;3.47;;
55025;SDS011;40925;45.666;18.994;2023-05-07T11:04:20;7.45;;;3.75;;
55025;SDS011;40925;45.666;18.994;2023-05-07T11:17:33;5.63;;;3.40;;
55025;SDS011;40925;45.666;18.994;2023-05-07T11:20:00;6.20;;;3.13;;
55025;SDS011;40925;45.666;18.994;2023-05-07T11:24:56;5.80;;;3.20;;
55025;SDS011;40925;45.666;18.994;2023-05-07T11:27:25;5.78;;;3.70;;
55025;SDS011;40925;45.666;18.994;2023-05-07T11:29:52;5.28;;;3.40;;
55025;SDS011;40925;45.666;18.994;2023-05-07T11:32:27;4.90;;;3.67;;
55025;SDS011;40925;45.666;18.994;2023-05-07T11:34:54;6.15;;;3.50;;
55025;SDS011;40925;45.666;18.994;2023-05-07T11:37:22;4.70;;;3.72;;
55025;SDS011;40925;45.666;18.994;2023-05-07T11:39:49;5.03;;;3.40;;
55025;SDS011;40925;45.666;18.994;2023-05-07T11:42:28;4.32;;;3.63;;
55025;SDS011;40925;45.666;18.994;2023-05-07T11:45:02;6.85;;;3.60;;
55025;SDS011;40925;45.666;18.994;2023-05-07T11:47:32;5.55;;;3.60;;
55025;SDS011;40925;45.666;18.994;2023-05-07T11:50:08;5.20;;;3.60;;
55025;SDS011;40925;45.666;18.994;2023-05-07T11:52:35;4.95;;;3.40;;
55025;SDS011;40925;45.666;18.994;2023-05-07T11:55:01;4.80;;;3.80;;
55025;SDS011;40925;45.666;18.994;2023-05-07T11:57:29;5.05;;;3.75;;
55025;SDS011;40925;45.666;18.994;2023-05-07T11:59:55;4.85;;;3.22;;
55025;SDS011;40925;45.666;18.994;2023-05-07T12:02:27;5.78;;;3.92;;
55025;SDS011;40925;45.666;18.994;2023-05-07T12:04:53;5.22;;;3.47;;
55025;SDS011;40925;45.666;18.994;2023-05-07T12:07:20;5.20;;;3.25;;
55025;SDS011;40925;45.666;18.994;2023-05-07T12:09:46;5.45;;;3.60;;
55025;SDS011;40925;45.666;18.994;2023-05-07T12:12:14;4.05;;;3.53;;
55025;SDS011;40925;45.666;18.994;2023-05-07T12:14:40;4.53;;;3.40;;
55025;SDS011;40925;45.666;18.994;2023-05-07T12:17:07;7.00;;;3.53;;
55025;SDS011;40925;45.666;18.994;2023-05-07T12:19:34;5.85;;;3.65;;
55025;SDS011;40925;45.666;18.994;2023-05-07T12:22:04;4.20;;;3.60;;
55025;SDS011;40925;45.666;18.994;2023-05-07T12:24:47;5.30;;;3.67;;
55025;SDS011;40925;45.666;18.994;2023-05-07T12:27:14;6.05;;;3.60;;
55025;SDS011;40925;45.666;18.994;2023-05-07T12:29:44;4.47;;;3.40;;
55025;SDS011;40925;45.666;18.994;2023-05-07T12:32:17;5.10;;;3.50;;
55025;SDS011;40925;45.666;18.994;2023-05-07T12:34:45;5.38;;;3.33;;
55025;SDS011;40925;45.666;18.994;2023-05-07T12:37:11;4.03;;;3.50;;
55025;SDS011;40925;45.666;18.994;2023-05-07T12:39:38;6.60;;;3.70;;
55025;SDS011;40925;45.666;18.994;2023-05-07T12:42:09;4.45;;;3.58;;
55025;SDS011;40925;45.666;18.994;2023-05-07T12:44:40;5.20;;;3.40;;
55025;SDS011;40925;45.666;18.994;2023-05-07T12:47:10;4.53;;;3.63;;
55025;SDS011;40925;45.666;18.994;2023-05-07T12:49:35;9.15;;;4.03;;
55025;SDS011;40925;45.666;18.994;2023-05-07T12:52:05;8.07;;;5.13;;
55025;SDS011;40925;45.666;18.994;2023-05-07T12:54:32;4.47;;;3.50;;
55025;SDS011;40925;45.666;18.994;2023-05-07T12:57:01;4.47;;;3.47;;
55025;SDS011;40925;45.666;18.994;2023-05-07T12:59:38;4.82;;;3.35;;
55025;SDS011;40925;45.666;18.994;2023-05-07T13:02:05;3.63;;;3.30;;
55025;SDS011;40925;45.666;18.994;2023-05-07T13:04:31;3.80;;;3.38;;
55025;SDS011;40925;45.666;18.994;2023-05-07T13:06:58;3.65;;;2.90;;
55025;SDS011;40925;45.666;18.994;2023-05-07T13:09:24;4.88;;;3.22;;
55025;SDS011;40925;45.666;18.994;2023-05-07T13:11:50;5.65;;;3.40;;
55025;SDS011;40925;45.666;18.994;2023-05-07T13:14:15;6.90;;;3.50;;
55025;SDS011;40925;45.666;18.994;2023-05-07T13:16:41;3.63;;;3.22;;
55025;SDS011;40925;45.666;18.994;2023-05-07T13:19:07;4.00;;;3.22;;
55025;SDS011;40925;45.666;18.994;2023-05-07T13:21:33;5.35;;;3.20;;
55025;SDS011;40925;45.666;18.994;2023-05-07T13:23:59;4.53;;;3.33;;
55025;SDS011;40925;45.666;18.994;2023-05-07T13:26:25;6.07;;;3.20;;
55025;SDS011;40925;45.666;18.994;2023-05-07T13:28:52;4.25;;;3.60;;
55025;SDS011;40925;45.666;18.994;2023-05-07T13:31:18;6.70;;;3.20;;
55025;SDS011;40925;45.666;18.994;2023-05-07T13:33:45;4.88;;;3.13;;
55025;SDS011;40925;45.666;18.994;2023-05-07T13:36:13;4.15;;;3.17;;
55025;SDS011;40925;45.666;18.994;2023-05-07T13:38:39;4.78;;;3.50;;
55025;SDS011;40925;45.666;18.994;2023-05-07T13:41:05;6.53;;;3.28;;
55025;SDS011;40925;45.666;18.994;2023-05-07T13:43:31;4.40;;;3.38;;
55025;SDS011;40925;45.666;18.994;2023-05-07T13:45:58;6.32;;;3.20;;
55025;SDS011;40925;45.666;18.994;2023-05-07T13:48:24;3.83;;;3.25;;
55025;SDS011;40925;45.666;18.994;2023-05-07T13:50:50;3.92;;;3.10;;
55025;SDS011;40925;45.666;18.994;2023-05-07T13:53:16;5.78;;;3.20;;
55025;SDS011;40925;45.666;18.994;2023-05-07T13:55:43;7.25;;;3.42;;
55025;SDS011;40925;45.666;18.994;2023-05-07T13:58:09;4.93;;;3.38;;
55025;SDS011;40925;45.666;18.994;2023-05-07T14:00:35;3.28;;;2.97;;
55025;SDS011;40925;45.666;18.994;2023-05-07T14:03:01;4.25;;;3.25;;
55025;SDS011;40925;45.666;18.994;2023-05-07T14:05:28;4.35;;;3.30;;
55025;SDS011;40925;45.666;18.994;2023-05-07T14:07:54;3.85;;;3.10;;
55025;SDS011;40925;45.666;18.994;2023-05-07T14:10:21;6.38;;;3.55;;
55025;SDS011;40925;45.666;18.994;2023-05-07T14:12:47;6.07;;;3.50;;
55025;SDS011;40925;45.666;18.994;2023-05-07T14:15:16;3.85;;;3.30;;
55025;SDS011;40925;45.666;18.994;2023-05-07T14:17:42;5.80;;;3.53;;
55025;SDS011;40925;45.666;18.994;2023-05-07T14:20:08;4.10;;;3.30;;
55025;SDS011;40925;45.666;18.994;2023-05-07T14:22:35;5.70;;;3.50;;
55025;SDS011;40925;45.666;18.994;2023-05-07T14:25:02;6.68;;;3.60;;
55025;SDS011;40925;45.666;18.994;2023-05-07T14:27:28;4.35;;;3.42;;
55025;SDS011;40925;45.666;18.994;2023-05-07T14:29:54;4.78;;;3.53;;
55025;SDS011;40925;45.666;18.994;2023-05-07T14:32:20;4.57;;;3.30;;
55025;SDS011;40925;45.666;18.994;2023-05-07T14:34:46;4.03;;;3.22;;
55025;SDS011;40925;45.666;18.994;2023-05-07T14:37:12;4.97;;;3.28;;
55025;SDS011;40925;45.666;18.994;2023-05-07T14:39:38;6.03;;;3.15;;
55025;SDS011;40925;45.666;18.994;2023-05-07T14:42:04;4.55;;;3.00;;
55025;SDS011;40925;45.666;18.994;2023-05-07T14:44:32;5.40;;;3.50;;
55025;SDS011;40925;45.666;18.994;2023-05-07T14:47:01;6.05;;;3.28;;
55025;SDS011;40925;45.666;18.994;2023-05-07T14:49:27;4.22;;;3.38;;
55025;SDS011;40925;45.666;18.994;2023-05-07T14:51:52;5.88;;;3.13;;
55025;SDS011;40925;45.666;18.994;2023-05-07T14:54:19;5.07;;;3.40;;
55025;SDS011;40925;45.666;18.994;2023-05-07T14:56:45;3.92;;;3.25;;